Time;durP1;ratioP1;P1;durP2;ratioP2;P2;SDS_P1;SDS_P2;PMS_P1;PMS_P2;Temp;Humidity;BMP_temperature;BMP_pressure;BME280_temperature;BME280_humidity;BME280_pressure;Samples;Min_cycle;Max_cycle;Signal;HPM_P1;HPM_P2
2023/10/12 00:01:57;;;;;;;7.72;1.67;;;;;;;10.76;100.00;100663.31;4936792;29;20183;-47
2023/10/12 00:04:27;;;;;;;8.88;1.75;;;;;;;10.94;100.00;100667.03;4936572;29;20201;-43
2023/10/12 00:06:52;;;;;;;8.88;2.08;;;;;;;10.83;100.00;100672.84;4924972;29;20175;-45
2023/10/12 00:09:20;;;;;;;11.98;1.98;;;;;;;10.78;100.00;100682.91;4936425;29;20262;-44
2023/10/12 00:11:58;;;;;;;11.57;1.95;;;;;;;10.79;100.00;100684.63;4928619;29;20637;-43
2023/10/12 00:14:30;;;;;;;9.80;1.65;;;;;;;10.77;100.00;100675.78;4930274;29;20203;-42
2023/10/12 00:16:58;;;;;;;11.20;2.58;;;;;;;10.67;100.00;100667.25;4936601;29;20610;-44
2023/10/12 00:19:23;;;;;;;13.95;1.83;;;;;;;10.65;100.00;100670.94;4936227;29;20230;-44
2023/10/12 00:22:00;;;;;;;8.00;1.73;;;;;;;10.69;100.00;100662.72;4937814;29;20175;-45
2023/10/12 00:24:27;;;;;;;11.73;2.30;;;;;;;10.70;100.00;100653.72;4936500;29;20290;-46
2023/10/12 00:26:53;;;;;;;11.63;1.60;;;;;;;10.64;100.00;100651.28;4934267;29;20238;-43
2023/10/12 00:29:20;;;;;;;7.38;2.00;;;;;;;10.66;100.00;100654.78;4931856;29;20619;-44
2023/10/12 00:31:48;;;;;;;9.35;2.00;;;;;;;10.72;100.00;100653.66;4925112;29;20183;-46
2023/10/12 00:34:14;;;;;;;9.30;1.55;;;;;;;10.66;100.00;100667.31;4920265;29;20226;-44
2023/10/12 00:36:41;;;;;;;14.70;1.60;;;;;;;10.60;100.00;100665.75;4937053;29;20257;-43
2023/10/12 00:39:09;;;;;;;13.35;1.70;;;;;;;10.60;100.00;100662.19;4922046;29;20195;-44
2023/10/12 00:41:37;;;;;;;12.75;2.45;;;;;;;10.64;100.00;100659.31;4938099;29;20187;-44
2023/10/12 00:49:13;;;;;;;11.23;1.98;;;;;;;10.52;100.00;100662.53;4927571;29;20279;-43
2023/10/12 00:51:49;;;;;;;9.73;2.42;;;;;;;10.54;100.00;100655.31;4921129;29;20234;-44
2023/10/12 00:54:40;;;;;;;8.50;1.52;;;;;;;10.57;100.00;100635.56;4933687;29;20686;-42
2023/10/12 00:57:08;;;;;;;14.88;2.22;;;;;;;10.55;100.00;100646.31;4935749;29;20189;-42
2023/10/12 00:59:34;;;;;;;11.27;1.83;;;;;;;10.49;100.00;100641.22;4935662;29;20263;-46
2023/10/12 01:02:11;;;;;;;18.85;2.05;;;;;;;10.42;100.00;100637.03;4936995;29;20184;-43
2023/10/12 01:04:39;;;;;;;17.83;2.30;;;;;;;10.36;100.00;100653.34;4918271;29;20207;-45
2023/10/12 01:07:11;;;;;;;13.60;2.15;;;;;;;10.42;100.00;100653.13;4919481;29;20167;-44
2023/10/12 01:09:39;;;;;;;12.75;1.60;;;;;;;10.42;100.00;100656.66;4916474;29;20176;-43
2023/10/12 01:12:13;;;;;;;9.38;2.13;;;;;;;10.41;100.00;100649.56;4910201;29;20209;-46
2023/10/12 01:14:47;;;;;;;13.40;2.25;;;;;;;10.38;100.00;100651.50;4935133;29;20199;-44
2023/10/12 01:17:34;;;;;;;12.77;1.90;;;;;;;10.41;100.00;100654.06;4935380;29;20187;-42
2023/10/12 01:20:10;;;;;;;14.77;2.17;;;;;;;10.31;100.00;100656.22;4944936;29;20247;-44
2023/10/12 01:22:39;;;;;;;7.65;1.80;;;;;;;10.33;100.00;100658.84;4934091;29;20221;-45
2023/10/12 01:25:19;;;;;;;11.90;1.52;;;;;;;10.25;100.00;100659.09;4907248;29;20275;-45
2023/10/12 01:27:46;;;;;;;11.60;1.80;;;;;;;10.20;100.00;100659.28;4935208;29;20231;-45
2023/10/12 01:30:22;;;;;;;14.70;2.15;;;;;;;10.23;100.00;100651.16;4907042;29;20546;-44
2023/10/12 01:32:58;;;;;;;6.60;1.20;;;;;;;10.25;100.00;100654.63;4934717;29;20629;-43
2023/10/12 01:35:32;;;;;;;7.55;1.83;;;;;;;10.18;100.00;100650.44;4919381;29;20574;-43
2023/10/12 01:38:04;;;;;;;7.93;2.30;;;;;;;10.14;100.00;100659.53;4934940;29;20207;-44
2023/10/12 01:43:12;;;;;;;8.82;1.48;;;;;;;10.17;100.00;100661.25;4936457;29;20214;-47
2023/10/12 01:45:41;;;;;;;16.45;1.90;;;;;;;10.10;100.00;100661.47;4937395;29;20216;-47
2023/10/12 01:48:16;;;;;;;9.30;1.63;;;;;;;10.13;100.00;100664.97;4936685;29;20296;-43
2023/10/12 01:50:47;;;;;;;8.65;2.00;;;;;;;10.10;100.00;100657.91;4934537;29;20577;-45
2023/10/12 01:55:46;;;;;;;8.30;1.60;;;;;;;10.10;100.00;100658.78;4936745;29;20199;-45
2023/10/12 01:58:12;;;;;;;10.68;1.80;;;;;;;10.05;100.00;100654.53;4918694;29;20620;-43
2023/10/12 02:00:42;;;;;;;14.18;2.38;;;;;;;10.07;100.00;100666.06;4940417;29;20175;-45
2023/10/12 02:05:51;;;;;;;17.20;2.17;;;;;;;10.16;100.00;100670.19;4924448;29;20175;-45
2023/10/12 02:08:20;;;;;;;11.52;1.75;;;;;;;10.15;100.00;100674.69;4930185;29;20205;-43
2023/10/12 02:10:58;;;;;;;13.35;1.85;;;;;;;10.10;100.00;100671.28;4935121;29;20251;-52
2023/10/12 02:13:24;;;;;;;11.00;1.67;;;;;;;10.08;100.00;100675.84;4927376;29;20231;-48
2023/10/12 02:15:52;;;;;;;9.02;1.85;;;;;;;10.08;100.00;100673.19;4930329;29;20245;-46
2023/10/12 02:18:19;;;;;;;11.30;2.05;;;;;;;10.02;100.00;100665.38;4926556;29;20196;-47
2023/10/12 02:21:27;;;;;;;14.40;2.17;;;;;;;9.94;100.00;100670.16;4932900;29;20222;-46
2023/10/12 02:27:00;;;;;;;8.15;2.20;;;;;;;9.88;100.00;100676.59;4932599;29;20178;-45
2023/10/12 02:29:25;;;;;;;12.65;2.13;;;;;;;9.85;100.00;100682.94;4939082;29;20206;-47
2023/10/12 02:34:17;;;;;;;10.40;1.45;;;;;;;9.85;100.00;100677.59;4919761;29;20219;-44
2023/10/12 02:39:37;;;;;;;12.93;2.08;;;;;;;9.86;100.00;100681.13;4932926;29;20179;-45
2023/10/12 02:44:36;;;;;;;15.60;1.65;;;;;;;9.86;100.00;100694.50;4933191;29;20294;-45
2023/10/12 02:47:12;;;;;;;7.70;1.20;;;;;;;9.82;100.00;100695.56;4924500;29;20191;-44
2023/10/12 02:49:41;;;;;;;11.15;1.60;;;;;;;9.87;100.00;100685.56;4938041;29;20179;-42
2023/10/12 02:52:08;;;;;;;8.43;1.88;;;;;;;9.83;100.00;100682.13;4934459;29;20203;-44
2023/10/12 02:54:52;;;;;;;14.98;1.77;;;;;;;9.80;100.00;100692.09;4936529;29;20203;-46
2023/10/12 02:57:24;;;;;;;13.52;1.83;;;;;;;9.82;100.00;100691.09;4938731;29;20230;-46
2023/10/12 03:02:33;;;;;;;7.05;1.50;;;;;;;9.85;100.00;100699.00;4931499;29;20638;-48
2023/10/12 03:05:06;;;;;;;12.73;2.00;;;;;;;9.82;100.00;100684.88;4919892;29;20185;-45
2023/10/12 03:07:35;;;;;;;10.52;1.95;;;;;;;9.77;100.00;100692.19;4932077;29;20198;-48
2023/10/12 03:10:06;;;;;;;10.15;1.63;;;;;;;9.78;100.00;100689.44;4936375;29;20194;-45
2023/10/12 03:12:34;;;;;;;10.57;1.83;;;;;;;9.79;100.00;100691.19;4936351;29;20195;-44
2023/10/12 03:15:11;;;;;;;12.10;1.50;;;;;;;9.83;100.00;100690.16;4927595;29;20198;-45
2023/10/12 03:17:37;;;;;;;11.77;2.15;;;;;;;9.78;100.00;100696.63;4933305;29;20183;-45
2023/10/12 03:20:28;;;;;;;9.82;1.67;;;;;;;9.76;100.00;100696.66;4937838;29;20186;-46
2023/10/12 03:23:05;;;;;;;11.25;1.33;;;;;;;9.78;100.00;100699.28;4930704;29;20215;-44
2023/10/12 04:02:24;;;;;;;11.90;1.48;;;;;;;9.63;100.00;100735.50;4936345;29;20198;-45
2023/10/12 04:05:15;;;;;;;10.43;2.05;;;;;;;9.63;100.00;100747.06;4936174;29;20308;-46
2023/10/12 04:13:09;;;;;;;14.32;1.83;;;;;;;9.55;100.00;100741.09;4935642;29;20211;-45
2023/10/12 04:18:19;;;;;;;11.60;2.05;;;;;;;9.63;100.00;100757.75;4935923;29;20182;-48
2023/10/12 04:20:45;;;;;;;15.75;1.98;;;;;;;9.63;100.00;100744.38;4937691;29;20183;-43
2023/10/12 04:25:59;;;;;;;8.93;1.92;;;;;;;9.64;100.00;100755.94;4939307;29;20245;-43
2023/10/12 04:28:32;;;;;;;10.60;1.58;;;;;;;9.62;100.00;100764.06;4938409;29;20174;-45
2023/10/12 04:33:29;;;;;;;9.48;1.60;;;;;;;9.65;100.00;100769.28;4938685;29;20286;-45
2023/10/12 04:43:39;;;;;;;11.32;1.80;;;;;;;9.64;100.00;100772.91;4937155;29;20203;-44
2023/10/12 04:46:26;;;;;;;16.85;1.98;;;;;;;9.68;100.00;100776.31;4940270;29;20186;-44
2023/10/12 04:51:39;;;;;;;11.80;1.83;;;;;;;9.61;100.00;100783.69;4941760;29;20928;-45
2023/10/12 04:54:16;;;;;;;3.97;1.73;;;;;;;9.68;100.00;100795.91;4935753;29;20211;-45
2023/10/12 04:56:52;;;;;;;6.97;1.58;;;;;;;9.69;100.00;100794.13;4935480;29;20210;-45
2023/10/12 04:59:26;;;;;;;14.95;2.10;;;;;;;9.62;100.00;100800.59;4934487;29;20596;-46
2023/10/12 05:09:39;;;;;;;10.20;1.75;;;;;;;9.49;100.00;100795.69;4937607;29;20566;-45
2023/10/12 05:12:05;;;;;;;10.30;1.73;;;;;;;9.52;100.00;100802.72;4941677;29;20278;-43
2023/10/12 05:14:31;;;;;;;11.68;1.83;;;;;;;9.57;100.00;100802.56;4927698;29;20204;-44
2023/10/12 05:16:56;;;;;;;8.35;1.45;;;;;;;9.59;100.00;100812.28;4946183;29;20192;-45
2023/10/12 05:19:22;;;;;;;11.15;1.45;;;;;;;9.54;100.00;100808.03;4937239;29;20531;-45
2023/10/12 05:21:47;;;;;;;7.80;1.52;;;;;;;9.54;100.00;100819.59;4939255;29;20619;-43
2023/10/12 05:24:13;;;;;;;13.63;2.00;;;;;;;9.52;100.00;100805.41;4935059;29;20223;-44
2023/10/12 05:26:38;;;;;;;14.57;1.92;;;;;;;9.52;100.00;100817.91;4937614;29;20233;-47
2023/10/12 05:31:59;;;;;;;6.78;1.40;;;;;;;9.57;100.00;100824.84;4935999;29;20200;-45
2023/10/12 05:37:26;;;;;;;11.75;1.80;;;;;;;9.41;100.00;100832.50;4932871;29;20270;-45
2023/10/12 05:39:56;;;;;;;12.23;1.70;;;;;;;9.46;100.00;100833.22;4937284;29;20182;-43
2023/10/12 05:42:26;;;;;;;6.97;1.30;;;;;;;9.49;100.00;100833.13;4939404;29;20246;-43
2023/10/12 05:45:17;;;;;;;13.38;2.03;;;;;;;9.53;100.00;100839.25;4928919;29;20247;-42
2023/10/12 05:47:43;;;;;;;6.63;1.20;;;;;;;9.55;100.00;100840.06;4943432;29;20301;-44
2023/10/12 05:50:13;;;;;;;7.82;1.98;;;;;;;9.51;100.00;100846.47;4942838;29;20672;-44
2023/10/12 05:52:39;;;;;;;7.47;1.13;;;;;;;9.52;100.00;100844.66;4931012;29;20201;-44
2023/10/12 05:55:18;;;;;;;9.75;2.08;;;;;;;9.52;100.00;100847.34;4937090;29;20207;-46
2023/10/12 05:57:44;;;;;;;10.85;1.63;;;;;;;9.43;100.00;100846.72;4938129;29;20243;-44
2023/10/12 06:00:11;;;;;;;6.22;1.52;;;;;;;9.37;100.00;100857.59;4937660;29;20194;-44
2023/10/12 06:02:38;;;;;;;7.57;1.38;;;;;;;9.51;100.00;100857.16;4941041;29;20255;-47
2023/10/12 06:05:05;;;;;;;12.30;1.95;;;;;;;9.59;100.00;100862.25;4924634;29;20194;-47
2023/10/12 06:07:31;;;;;;;13.05;1.70;;;;;;;9.63;100.00;100850.50;4936754;29;20182;-44
2023/10/12 06:09:57;;;;;;;11.43;3.22;;;;;;;9.70;100.00;100858.25;4936120;29;20270;-45
2023/10/12 06:12:24;;;;;;;7.88;1.58;;;;;;;9.75;100.00;100857.25;4932085;29;20215;-44
2023/10/12 06:14:53;;;;;;;11.70;1.48;;;;;;;9.79;100.00;100850.84;4933509;29;20191;-46
2023/10/12 06:17:30;;;;;;;9.05;1.40;;;;;;;9.82;100.00;100851.63;4933446;29;20262;-45
2023/10/12 06:20:00;;;;;;;18.48;1.77;;;;;;;9.86;100.00;100860.41;4935461;29;20194;-44
2023/10/12 06:22:32;;;;;;;10.50;1.52;;;;;;;9.87;100.00;100871.06;4935260;29;20192;-47
2023/10/12 06:24:59;;;;;;;7.55;1.05;;;;;;;9.82;100.00;100877.53;4933869;29;20246;-43
2023/10/12 06:27:25;;;;;;;14.00;1.77;;;;;;;9.85;100.00;100880.94;4933173;29;20211;-45
2023/10/12 06:29:54;;;;;;;11.85;2.17;;;;;;;9.77;100.00;100890.16;4934935;29;20231;-46
2023/10/12 06:32:34;;;;;;;8.32;1.60;;;;;;;9.85;100.00;100893.47;4934414;29;20264;-45
2023/10/12 06:41:01;;;;;;;4.68;1.38;;;;;;;9.99;100.00;100907.25;4931282;29;20195;-45
2023/10/12 06:45:46;;;;;;;12.48;1.40;;;;;;;10.01;100.00;100932.16;4932320;29;20202;-46
2023/10/12 06:51:06;;;;;;;12.13;2.35;;;;;;;10.08;100.00;100946.22;4938259;29;20233;-45
2023/10/12 06:53:36;;;;;;;8.70;1.88;;;;;;;10.07;100.00;100947.13;4941929;28;20686;-44
2023/10/12 06:58:41;;;;;;;9.05;1.92;;;;;;;10.16;100.00;100953.97;4933894;29;20189;-45
2023/10/12 07:01:18;;;;;;;13.98;1.92;;;;;;;10.24;100.00;100955.47;4937273;29;20179;-43
2023/10/12 07:03:48;;;;;;;14.20;1.88;;;;;;;10.40;100.00;100957.63;4930113;29;20211;-45
2023/10/12 07:06:15;;;;;;;9.23;1.98;;;;;;;10.51;100.00;100958.97;4944498;29;20176;-43
2023/10/12 07:08:46;;;;;;;6.65;1.15;;;;;;;10.63;100.00;100964.84;4924192;29;20180;-45
2023/10/12 07:11:14;;;;;;;6.93;1.42;;;;;;;11.08;100.00;100958.69;4922982;29;20201;-46
2023/10/12 07:13:41;;;;;;;9.50;1.83;;;;;;;11.24;100.00;100957.19;4936710;29;20295;-46
2023/10/12 07:16:10;;;;;;;7.80;1.63;;;;;;;11.13;100.00;100968.31;4939821;29;20778;-46
2023/10/12 07:18:42;;;;;;;7.93;1.52;;;;;;;11.09;100.00;100965.81;4943859;29;20175;-45
2023/10/12 07:21:20;;;;;;;11.57;1.70;;;;;;;11.26;100.00;100974.09;4937305;29;20583;-44
2023/10/12 07:23:52;;;;;;;12.60;1.95;;;;;;;11.13;100.00;100979.06;4935017;28;20261;-44
2023/10/12 07:26:21;;;;;;;7.40;1.60;;;;;;;11.03;100.00;100984.81;4932774;29;20190;-48
2023/10/12 07:28:50;;;;;;;10.00;1.65;;;;;;;11.01;100.00;100987.53;4938586;29;20269;-48
2023/10/12 07:33:59;;;;;;;7.57;1.60;;;;;;;10.86;100.00;100988.97;4938980;28;20206;-44
2023/10/12 07:36:46;;;;;;;9.63;1.75;;;;;;;10.78;100.00;101003.59;4944604;29;20222;-46
2023/10/12 07:41:53;;;;;;;7.75;1.63;;;;;;;10.83;100.00;100991.78;4935858;29;20646;-50
2023/10/12 07:44:27;;;;;;;15.65;2.25;;;;;;;10.91;100.00;101000.44;4944072;28;20186;-47
2023/10/12 07:46:56;;;;;;;8.88;1.52;;;;;;;11.21;100.00;100999.31;4939460;29;20183;-46
2023/10/12 07:57:22;;;;;;;10.23;1.17;;;;;;;11.93;100.00;100975.03;4940166;29;20261;-45
2023/10/12 08:05:25;;;;;;;12.10;2.13;;;;;;;12.71;100.00;100994.97;4933898;29;20638;-45
2023/10/12 08:13:15;;;;;;;9.85;1.90;;;;;;;12.79;97.20;100992.81;4939273;29;20193;-49
2023/10/12 08:21:58;;;;;;;7.65;1.42;;;;;;;12.84;95.10;101009.63;4940987;29;20172;-47
2023/10/12 08:24:37;;;;;;;10.75;1.40;;;;;;;13.05;94.41;101005.06;4929119;29;20227;-45
2023/10/12 08:29:21;;;;;;;10.68;1.33;;;;;;;12.33;94.83;101000.19;4938064;29;20187;-44
2023/10/12 08:37:18;;;;;;;6.47;1.40;;;;;;;13.39;93.42;101009.78;4936299;29;20219;-45
2023/10/12 08:40:06;;;;;;;9.93;1.38;;;;;;;13.80;93.09;101009.63;4925115;29;20186;-44
2023/10/12 08:44:58;;;;;;;6.35;1.30;;;;;;;13.20;90.86;101011.56;4941750;29;20311;-46
2023/10/12 08:52:32;;;;;;;11.35;1.30;;;;;;;12.74;93.37;101041.41;4938561;29;20191;-45
2023/10/12 08:55:12;;;;;;;5.35;1.20;;;;;;;12.74;93.72;101040.53;4936360;29;20250;-46
2023/10/12 08:57:44;;;;;;;8.50;1.40;;;;;;;12.55;94.51;101051.19;4939092;29;21214;-45
2023/10/12 09:03:00;;;;;;;10.70;1.88;;;;;;;13.50;94.89;101059.56;4934194;29;20546;-47
2023/10/12 09:05:30;;;;;;;11.10;1.42;;;;;;;13.92;93.21;101053.94;4939326;29;20310;-45
2023/10/12 09:08:46;;;;;;;7.18;1.30;;;;;;;14.16;92.32;101061.78;4936909;29;20657;-46
2023/10/12 09:11:02;;;;;;;14.57;1.42;;;;;;;13.73;91.09;101061.16;4930264;29;20430;-46
2023/10/12 09:13:35;;;;;;;9.30;1.40;;;;;;;13.44;89.91;101063.41;4941840;28;20745;-46
2023/10/12 09:16:04;;;;;;;12.10;1.67;;;;;;;13.30;89.82;101052.44;4938678;29;20207;-46
2023/10/12 09:18:33;;;;;;;8.02;1.23;;;;;;;13.38;89.95;101055.59;4936086;29;20187;-51
2023/10/12 09:23:45;;;;;;;6.45;1.15;;;;;;;13.12;86.58;101038.84;4935646;28;20309;-47
2023/10/12 09:36:28;;;;;;;6.75;1.33;;;;;;;13.05;80.65;101014.97;4939729;29;20198;-48
2023/10/12 09:38:55;;;;;;;4.47;1.20;;;;;;;13.03;80.63;101014.16;4939448;29;20592;-45
2023/10/12 09:41:36;;;;;;;5.10;1.02;;;;;;;12.92;80.76;101020.91;4937616;29;20195;-48
2023/10/12 09:44:05;;;;;;;4.25;0.95;;;;;;;12.84;81.08;101032.94;4935568;29;20194;-50
2023/10/12 09:46:33;;;;;;;6.18;1.30;;;;;;;12.83;81.83;101034.75;4936828;29;20183;-46
2023/10/12 09:49:06;;;;;;;7.40;1.30;;;;;;;12.75;82.25;101045.00;4937813;29;20198;-47
2023/10/12 09:51:45;;;;;;;4.88;0.88;;;;;;;12.57;83.10;101050.22;4935830;29;20203;-46
2023/10/12 09:54:27;;;;;;;7.22;1.15;;;;;;;12.52;83.79;101064.78;4940737;29;20198;-47
2023/10/12 09:56:58;;;;;;;9.73;1.05;;;;;;;12.65;83.44;101076.75;4936333;29;20194;-47
2023/10/12 09:59:38;;;;;;;3.65;1.10;;;;;;;12.75;83.20;101062.00;4918094;29;20246;-46
2023/10/12 10:02:27;;;;;;;5.22;1.08;;;;;;;13.19;82.83;101067.19;4938029;29;20189;-48
2023/10/12 10:05:01;;;;;;;10.73;1.42;;;;;;;13.67;82.78;101061.47;4940164;29;20602;-48
2023/10/12 10:07:32;;;;;;;10.02;1.13;;;;;;;14.01;82.09;101056.22;4935555;29;20191;-48
2023/10/12 10:10:01;;;;;;;10.10;1.25;;;;;;;14.15;80.65;101039.34;4934809;29;20210;-50
2023/10/12 10:12:35;;;;;;;3.88;1.00;;;;;;;14.33;79.54;101034.00;4940520;29;20187;-47
2023/10/12 10:15:10;;;;;;;5.93;1.20;;;;;;;14.51;78.96;101037.56;4936927;29;20269;-49
2023/10/12 10:17:46;;;;;;;6.43;1.70;;;;;;;14.33;77.85;101029.47;4934166;29;20167;-51
2023/10/12 10:22:56;;;;;;;6.60;1.25;;;;;;;14.41;76.33;101016.47;4937223;29;20175;-48
2023/10/12 10:25:34;;;;;;;10.82;1.27;;;;;;;14.58;76.78;101033.63;4920121;29;20192;-46
2023/10/12 10:28:10;;;;;;;5.70;1.00;;;;;;;14.04;76.19;101022.84;4934225;29;20188;-47
2023/10/12 10:30:41;;;;;;;3.15;0.90;;;;;;;14.39;76.58;101025.59;4937441;29;20270;-47
2023/10/12 10:33:12;;;;;;;7.82;1.08;;;;;;;14.72;76.36;101036.50;4935467;29;20227;-47
2023/10/12 10:35:56;;;;;;;7.97;1.10;;;;;;;14.66;75.44;101030.53;4933753;29;20210;-47
2023/10/12 10:38:32;;;;;;;6.20;1.00;;;;;;;14.86;75.38;101037.59;4939560;29;20262;-47
2023/10/12 10:41:08;;;;;;;4.82;0.95;;;;;;;14.97;73.68;101019.00;4934861;29;20171;-47
2023/10/12 10:43:37;;;;;;;5.57;1.13;;;;;;;14.89;73.78;101030.22;4933975;29;20267;-48
2023/10/12 10:46:10;;;;;;;9.00;1.17;;;;;;;14.82;72.79;101015.28;4922246;29;20705;-46
2023/10/12 10:48:39;;;;;;;7.15;1.17;;;;;;;14.91;72.00;101013.94;4938795;29;20195;-46
2023/10/12 10:54:18;;;;;;;4.50;2.13;;;;;;;14.91;71.10;101004.03;4896896;29;20638;-45
2023/10/12 10:57:15;;;;;;;7.53;1.20;;;;;;;15.10;70.84;101009.28;4938970;29;20315;-46
2023/10/12 10:59:44;;;;;;;6.63;1.27;;;;;;;15.61;70.27;100992.97;4935117;29;20191;-47
2023/10/12 11:02:11;;;;;;;3.47;1.10;;;;;;;15.71;69.26;100986.13;4919094;29;20671;-46
2023/10/12 11:07:13;;;;;;;6.60;1.20;;;;;;;16.11;69.44;100985.66;4938623;29;20174;-45
2023/10/12 11:12:24;;;;;;;5.75;1.15;;;;;;;15.76;67.08;100964.25;4938381;29;20657;-46
2023/10/12 11:15:00;;;;;;;7.60;1.15;;;;;;;15.67;67.02;100960.22;4939305;29;20211;-49
2023/10/12 11:17:30;;;;;;;6.03;1.83;;;;;;;14.95;68.15;100983.13;4937118;29;20182;-46
2023/10/12 11:19:58;;;;;;;4.68;1.08;;;;;;;14.94;68.58;100990.38;4937303;29;20629;-45
2023/10/12 11:22:24;;;;;;;6.13;1.55;;;;;;;14.66;69.55;100999.06;4940054;29;20269;-46
2023/10/12 11:24:49;;;;;;;13.35;1.92;;;;;;;14.91;70.22;101009.44;4921301;29;21147;-47
2023/10/12 11:27:35;;;;;;;7.35;1.50;;;;;;;14.71;69.99;100998.81;4938740;29;20218;-49
2023/10/12 11:30:06;;;;;;;13.70;1.75;;;;;;;14.49;70.40;101004.41;4947335;29;20478;-45
2023/10/12 11:32:51;;;;;;;8.02;1.73;;;;;;;14.62;70.39;101002.84;4939353;29;20278;-45
2023/10/12 11:35:16;;;;;;;12.07;1.67;;;;;;;14.47;71.10;100995.53;4937209;29;20210;-44
2023/10/12 11:37:42;;;;;;;8.77;1.50;;;;;;;14.55;71.70;101015.78;4940776;29;20179;-46
2023/10/12 11:40:09;;;;;;;7.03;1.52;;;;;;;14.73;71.42;101013.94;4941555;29;20170;-45
2023/10/12 11:42:51;;;;;;;9.13;1.67;;;;;;;14.54;71.58;101018.53;4937583;29;20217;-46
2023/10/12 11:45:18;;;;;;;6.47;1.63;;;;;;;14.38;71.86;101022.00;4936048;29;20179;-46
2023/10/12 11:47:43;;;;;;;12.95;1.83;;;;;;;14.43;71.19;101024.50;4941227;29;20212;-44
2023/10/12 11:50:13;;;;;;;7.47;1.90;;;;;;;14.48;71.63;101033.22;4938793;29;20207;-46
2023/10/12 11:52:40;;;;;;;12.13;2.15;;;;;;;14.64;71.66;101025.22;4938148;29;20237;-49
2023/10/12 11:55:20;;;;;;;11.52;2.45;;;;;;;14.50;71.18;101030.44;4937833;29;20246;-44
2023/10/12 11:57:58;;;;;;;8.40;1.52;;;;;;;14.59;71.54;101025.47;4918727;29;20691;-49
2023/10/12 12:00:29;;;;;;;14.63;2.13;;;;;;;14.13;72.68;101037.69;4938999;29;20187;-46
2023/10/12 12:03:02;;;;;;;9.30;1.95;;;;;;;13.81;73.17;101045.50;4936103;29;20247;-47
2023/10/12 12:05:33;;;;;;;10.27;1.77;;;;;;;13.97;73.88;101054.63;4938724;29;20207;-47
2023/10/12 12:08:06;;;;;;;8.23;1.75;;;;;;;14.08;74.04;101051.41;4938001;29;20569;-48
2023/10/12 12:13:16;;;;;;;9.15;1.80;;;;;;;13.81;74.64;101050.91;4940065;29;20203;-45
2023/10/12 12:15:43;;;;;;;12.68;2.13;;;;;;;13.77;74.72;101052.00;4935903;29;20214;-45
2023/10/12 12:18:14;;;;;;;13.40;2.28;;;;;;;13.79;74.51;101055.47;4937548;29;20671;-48
2023/10/12 12:20:43;;;;;;;11.60;1.63;;;;;;;13.88;74.88;101055.03;4936775;29;20270;-52
2023/10/12 12:23:10;;;;;;;12.90;2.25;;;;;;;13.88;75.21;101055.03;4937968;29;20206;-46
2023/10/12 12:25:39;;;;;;;15.27;2.00;;;;;;;13.81;75.27;101059.84;4937477;29;20668;-47
2023/10/12 12:28:07;;;;;;;9.70;1.55;;;;;;;13.85;74.82;101052.50;4935541;29;20259;-46
2023/10/12 12:30:45;;;;;;;5.82;2.22;;;;;;;13.98;75.04;101063.56;4938407;29;20191;-45
2023/10/12 12:33:15;;;;;;;8.68;1.90;;;;;;;13.99;75.02;101066.19;4938485;29;20198;-45
2023/10/12 12:35:45;;;;;;;13.90;2.00;;;;;;;13.84;75.20;101050.78;4937064;29;20226;-45
2023/10/12 12:38:51;;;;;;;10.60;1.92;;;;;;;13.92;74.92;101055.78;4937113;29;20650;-46
2023/10/12 12:41:20;;;;;;;7.30;1.80;;;;;;;14.10;76.08;101073.75;4933369;29;20199;-46
2023/10/12 12:43:49;;;;;;;13.07;2.17;;;;;;;14.37;75.87;101062.53;4939657;29;20199;-46
2023/10/12 12:46:16;;;;;;;12.05;3.08;;;;;;;14.47;75.47;101063.78;4936378;29;20190;-48
2023/10/12 12:48:45;;;;;;;8.35;2.08;;;;;;;14.48;75.11;101064.69;4936620;29;20176;-45
2023/10/12 12:51:18;;;;;;;8.68;1.70;;;;;;;14.15;74.24;101058.22;4937619;29;20187;-46
2023/10/12 12:53:50;;;;;;;9.80;1.92;;;;;;;14.16;72.86;101048.31;4938579;29;20305;-45
2023/10/12 12:56:17;;;;;;;8.25;1.65;;;;;;;14.22;72.58;101048.00;4937537;29;20302;-46
2023/10/12 12:58:47;;;;;;;6.35;1.42;;;;;;;13.97;72.33;101040.25;4935959;29;20186;-44
2023/10/12 13:01:23;;;;;;;11.15;1.50;;;;;;;13.83;73.11;101057.09;4937437;29;20669;-46
2023/10/12 13:03:55;;;;;;;7.63;1.75;;;;;;;13.78;73.53;101060.00;4935750;29;20206;-46
2023/10/12 13:06:21;;;;;;;13.18;2.40;;;;;;;13.72;74.21;101056.72;4935698;29;20834;-47
2023/10/12 13:08:46;;;;;;;10.13;1.95;;;;;;;13.71;74.51;101065.75;4939738;29;20288;-48
2023/10/12 13:11:20;;;;;;;9.90;1.85;;;;;;;13.62;73.72;101071.56;4936411;29;20188;-46
2023/10/12 13:13:47;;;;;;;6.22;1.80;;;;;;;13.50;72.74;101046.97;4936663;29;20339;-47
2023/10/12 13:16:13;;;;;;;3.88;1.30;;;;;;;13.77;72.38;101044.81;4938311;29;20217;-49
2023/10/12 13:18:46;;;;;;;6.00;1.20;;;;;;;13.82;71.09;101036.50;4942391;29;20178;-45
2023/10/12 13:21:14;;;;;;;11.63;1.20;;;;;;;13.91;70.77;101033.34;4934373;29;20195;-47
2023/10/12 13:23:42;;;;;;;7.45;1.30;;;;;;;14.11;69.34;101024.28;4935848;29;20217;-47
2023/10/12 13:26:13;;;;;;;7.05;1.55;;;;;;;14.24;68.51;101002.13;4940940;29;20267;-48
2023/10/12 13:28:41;;;;;;;7.25;1.17;;;;;;;14.31;68.62;100998.16;4938445;29;20344;-45
2023/10/12 13:31:10;;;;;;;6.80;1.23;;;;;;;14.09;67.90;100991.16;4935128;29;20194;-47
2023/10/12 13:33:37;;;;;;;9.32;1.30;;;;;;;14.19;68.02;100988.84;4935996;29;20267;-46
2023/10/12 13:36:04;;;;;;;11.55;1.55;;;;;;;14.34;67.46;100988.09;4938130;29;20219;-46
2023/10/12 13:38:33;;;;;;;5.45;1.17;;;;;;;14.16;66.38;100975.53;4935713;29;20578;-46
2023/10/12 13:41:01;;;;;;;8.60;1.60;;;;;;;14.15;66.25;100981.91;4936986;29;20226;-47
2023/10/12 13:43:30;;;;;;;7.53;1.35;;;;;;;14.32;65.64;100960.34;4936530;29;20202;-45
2023/10/12 13:45:56;;;;;;;7.22;1.67;;;;;;;14.42;65.39;100966.13;4921457;29;20179;-47
2023/10/12 13:48:25;;;;;;;6.30;1.67;;;;;;;14.33;65.69;100964.78;4934125;29;20187;-47
2023/10/12 13:51:01;;;;;;;7.45;1.55;;;;;;;14.22;65.70;100973.41;4942365;29;20186;-44
2023/10/12 13:53:27;;;;;;;9.32;1.48;;;;;;;14.38;66.08;100973.50;4936456;29;20556;-45
2023/10/12 13:55:53;;;;;;;8.63;1.65;;;;;;;14.20;65.90;100971.75;4935347;29;20214;-45
2023/10/12 13:58:24;;;;;;;7.03;1.65;;;;;;;14.20;66.42;100964.53;4937441;29;20599;-44
2023/10/12 14:00:51;;;;;;;6.32;1.50;;;;;;;14.15;66.31;100976.50;4940288;29;20546;-43
2023/10/12 14:03:17;;;;;;;7.55;1.17;;;;;;;14.14;65.54;100963.97;4935833;29;20202;-48
2023/10/12 14:05:43;;;;;;;7.82;1.42;;;;;;;14.28;65.78;100972.25;4934573;29;20191;-48
2023/10/12 14:08:12;;;;;;;7.50;1.48;;;;;;;14.28;65.52;100966.84;4938729;29;20189;-49
2023/10/12 14:10:41;;;;;;;5.30;1.23;;;;;;;14.35;65.98;100979.03;4938166;29;20183;-49
2023/10/12 14:13:08;;;;;;;10.30;1.40;;;;;;;14.29;66.15;100971.28;4936305;29;20761;-44
2023/10/12 14:15:37;;;;;;;8.32;1.45;;;;;;;14.07;66.84;100976.88;4933824;29;20297;-50
2023/10/12 14:18:05;;;;;;;6.00;1.20;;;;;;;14.13;66.90;100984.66;4935227;29;20174;-47
2023/10/12 14:20:32;;;;;;;7.80;1.33;;;;;;;14.04;66.79;100997.72;4937763;29;20278;-47
2023/10/12 14:23:05;;;;;;;10.57;2.10;;;;;;;14.06;66.99;100999.41;4932686;29;20191;-50
2023/10/12 14:58:38;;;;;;;4.68;1.42;;;;;;;13.03;74.57;101068.84;4934353;29;20701;-49
2023/10/12 15:01:13;;;;;;;10.00;1.42;;;;;;;13.10;75.21;101085.59;4933272;29;20183;-46
2023/10/12 15:03:41;;;;;;;11.73;2.15;;;;;;;13.07;76.19;101083.88;4936194;29;20231;-48
2023/10/12 15:06:07;;;;;;;10.57;1.77;;;;;;;12.98;76.53;101084.28;4933431;29;20194;-46
2023/10/12 15:08:36;;;;;;;7.88;1.58;;;;;;;12.75;76.96;101088.00;4935922;29;20190;-46
2023/10/12 15:11:05;;;;;;;8.20;2.25;;;;;;;12.89;77.24;101082.88;4934661;29;20643;-47
2023/10/12 15:13:32;;;;;;;10.02;1.80;;;;;;;12.84;77.49;101084.03;4915768;29;20203;-46
2023/10/12 15:15:58;;;;;;;10.95;1.70;;;;;;;12.75;77.95;101085.31;4934934;29;20226;-47
2023/10/12 15:18:24;;;;;;;11.38;1.67;;;;;;;12.74;78.65;101088.94;4937463;29;20183;-47
2023/10/12 15:20:53;;;;;;;10.07;1.77;;;;;;;12.77;78.79;101081.63;4931207;29;20266;-45